Terminal Aerodrome Forecast
Issued by NWS

Home | Current Version | Previous Version | Text Only | Print | Product List | Glossary On
Versions: 1 2 3 4 5 6 7 8 9 10 11 12 13 14 15 16
000
FTUS43 KAPX 180500
TAFTVC
TAF
KTVC 180534Z 1806/1906 31003KT P6SM BKN040
     FM181000 30004KT P6SM BKN018 OVC040
     FM181600 34010KT P6SM SCT150
     FM190000 02003KT P6SM SKC=

USA.gov is the U.S. government's official web portal to all federal, state and local government web resources and services.